OITM  Sahand Airport

Add Bookmark

Maragheh, Iran

Status IATA
Operational ACP
Latitude Longitude
37° 20' 52" N 46° 7' 40" E
37.348000 46.127899
Local (DST + 5) UTC (GMT + 4)
Sep 19, 2014 08:16 Sep 19, 2014 03:46
Sunrise-Sunset Local UTC
Begin Civil Twilight 06:43 02:13
Sunrise 07:09 02:39
Sunset 07:28 14:58
End Civil Twilight 07:54 15:24

Current Weather

METAR Observed VFR
OITM 190300Z 07014KT CAVOK 16/07 Q1020 Fri, Sep 19, 2014 @ 03:00 UTC
(46 Minutes ago)
Visual Flight Rules
Wind Visibility Clouds Conditions
070° at 14 knots (26 kph) 10 km or more
  • Clear skies
  • No significant weather
Temperatures Readings Precipitation
Current Temp 16°C (61°F)
Dewpoint 7°C (45°F)
Humidity 55%
Altimeter 30.12"Hg
Sea Level Pressure 1020mb
Field Elevation 4396.33'
None Recorded

Additional weather within a 92.6km radius of OITM

Map ICAO Location
OITT 87.8km N (006°)

24 Hour Weather History

Loading
-

24 Hour Weather Graphs

Loading
-

CheckWX.com is intended as a tool to help pilots better visualize weather data. It is not intended as a substitute for an official weather briefing obtained from a Flight Service Station. CheckWX.com does not meet the FAA requirements for an official pre-flight weather briefing. Therefore, it's important that pilots still call and obtain an official FSS pre-flight weather briefing.